Time,TemperatureF,DewpointF,PressureIn,WindDirection,WindDirectionDegrees,WindSpeedMPH,WindSpeedGustMPH,Humidity,HourlyPrecipIn,Conditions,Clouds,dailyrainin,SoftwareType,DateUTC
2013-05-29 00:00:00,58.8,57.4,30.15,SW,222,0.0,238.7,95,4.69,,,0.00,VWS V14.01,2013-05-29 04:00:00,
2013-05-29 00:01:00,58.6,57.2,30.16,SW,222,0.0,238.7,95,4.69,,,0.26,VWS V14.01,2013-05-29 04:01:00,
2013-05-29 00:02:00,58.8,57.4,30.15,SW,222,0.0,238.7,95,4.69,,,0.00,VWS V14.01,2013-05-29 04:02:00,
2013-05-29 00:03:00,58.7,57.3,30.16,SW,222,0.0,238.7,95,4.69,,,0.26,VWS V14.01,2013-05-29 04:03:00,
2013-05-29 00:04:00,58.8,57.4,30.15,SW,222,0.0,238.7,95,4.69,,,0.00,VWS V14.01,2013-05-29 04:04:00,
2013-05-29 00:05:00,58.9,57.5,30.15,SW,222,0.0,238.7,95,4.69,,,0.00,VWS V14.01,2013-05-29 04:05:00,
2013-05-29 00:06:00,58.6,57.2,30.15,SW,222,0.0,238.7,95,4.69,,,0.26,VWS V14.01,2013-05-29 04:06:00,
2013-05-29 00:07:00,58.7,57.3,30.16,SW,222,0.0,238.7,95,4.69,,,0.26,VWS V14.01,2013-05-29 04:07:00,
2013-05-29 00:08:00,58.9,57.5,30.15,SW,222,0.0,238.7,95,4.69,,,0.00,VWS V14.01,2013-05-29 04:08:00,
2013-05-29 00:09:00,58.8,57.4,30.15,SW,222,0.0,238.7,95,4.69,,,0.00,VWS V14.01,2013-05-29 04:09:00,
2013-05-29 00:10:00,58.9,57.5,30.15,SW,222,0.0,238.7,95,4.69,,,0.00,VWS V14.01,2013-05-29 04:10:00,
2013-05-29 00:11:00,58.8,57.4,30.15,SW,222,0.0,238.7,95,4.69,,,0.00,VWS V14.01,2013-05-29 04:11:00,
2013-05-29 00:12:00,58.7,57.3,30.16,SW,222,0.0,238.7,95,4.69,,,0.26,VWS V14.01,2013-05-29 04:12:00,
2013-05-29 00:13:00,58.9,57.5,30.15,SW,222,0.0,238.7,95,4.69,,,0.00,VWS V14.01,2013-05-29 04:13:00,
2013-05-29 00:14:00,58.8,57.4,30.15,SW,222,0.0,238.7,95,4.69,,,0.00,VWS V14.01,2013-05-29 04:14:00,
2013-05-29 00:15:00,58.9,57.5,30.15,SW,222,0.0,238.7,95,4.69,,,0.00,VWS V14.01,2013-05-29 04:15:00,
2013-05-29 00:17:00,58.7,57.3,30.16,SW,222,0.0,238.7,95,4.69,,,0.26,VWS V14.01,2013-05-29 04:17:00,
2013-05-29 00:18:00,58.9,57.5,30.15,SW,222,0.0,238.7,95,4.69,,,0.00,VWS V14.01,2013-05-29 04:18:00,
2013-05-29 00:19:00,58.8,57.4,30.15,SW,222,0.0,238.7,95,4.69,,,0.00,VWS V14.01,2013-05-29 04:19:00,
2013-05-29 00:20:00,58.8,57.4,30.15,SW,222,0.0,238.7,95,4.69,,,0.00,VWS V14.01,2013-05-29 04:20:00,
2013-05-29 00:21:00,58.9,57.5,30.15,SW,222,0.0,238.7,95,4.69,,,0.00,VWS V14.01,2013-05-29 04:21:00,
2013-05-29 00:22:00,58.7,57.3,30.15,SW,222,0.0,238.7,95,4.69,,,0.26,VWS V14.01,2013-05-29 04:22:00,
2013-05-29 00:23:00,58.8,57.5,30.15,SW,222,0.0,238.7,95,4.69,,,0.00,VWS V14.01,2013-05-29 04:23:00,
2013-05-29 00:24:00,58.8,57.5,30.15,SW,222,0.0,238.7,95,4.69,,,0.00,VWS V14.01,2013-05-29 04:24:00,
2013-05-29 00:25:00,58.8,57.5,30.15,SW,222,0.0,238.7,95,4.69,,,0.00,VWS V14.01,2013-05-29 04:25:00,
2013-05-29 00:26:00,58.8,57.5,30.15,SW,222,0.0,238.7,95,4.69,,,0.00,VWS V14.01,2013-05-29 04:26:00,
2013-05-29 00:28:00,58.7,57.3,30.15,SW,222,0.0,238.7,95,4.69,,,0.26,VWS V14.01,2013-05-29 04:28:00,
2013-05-29 00:29:00,58.8,57.5,30.15,SW,222,0.0,238.7,95,4.69,,,0.00,VWS V14.01,2013-05-29 04:29:00,
2013-05-29 00:30:00,58.8,57.5,30.15,SW,222,0.0,238.7,95,4.69,,,0.00,VWS V14.01,2013-05-29 04:30:00,
2013-05-29 00:31:00,58.8,57.5,30.15,SW,222,0.0,238.7,95,4.69,,,0.00,VWS V14.01,2013-05-29 04:31:00,
2013-05-29 00:32:00,58.8,57.5,30.15,SW,222,0.0,238.7,95,4.69,,,0.00,VWS V14.01,2013-05-29 04:32:00,
2013-05-29 00:33:00,58.8,57.4,30.15,SW,222,0.0,238.7,95,4.69,,,0.26,VWS V14.01,2013-05-29 04:33:00,
2013-05-29 00:35:00,58.8,57.5,30.15,SW,222,0.0,238.7,95,4.69,,,0.00,VWS V14.01,2013-05-29 04:35:00,
2013-05-29 00:36:00,58.8,57.5,30.15,SW,222,0.0,238.7,95,4.69,,,0.00,VWS V14.01,2013-05-29 04:36:00,
2013-05-29 00:37:00,58.8,57.5,30.15,SW,222,0.0,238.7,95,4.69,,,0.00,VWS V14.01,2013-05-29 04:37:00,
2013-05-29 00:38:00,58.8,57.4,30.15,SW,222,0.0,238.7,95,4.69,,,0.26,VWS V14.01,2013-05-29 04:38:00,
2013-05-29 00:39:00,58.8,57.5,30.15,SW,222,0.0,238.7,95,4.69,,,0.00,VWS V14.01,2013-05-29 04:39:00,
2013-05-29 00:41:00,58.8,57.5,30.15,SW,222,0.0,238.7,95,4.69,,,0.00,VWS V14.01,2013-05-29 04:41:00,
2013-05-29 00:42:00,58.8,57.5,30.14,SW,222,0.0,238.7,95,4.69,,,0.00,VWS V14.01,2013-05-29 04:42:00,
2013-05-29 00:43:00,58.8,57.5,30.14,SW,222,0.0,238.7,95,4.69,,,0.00,VWS V14.01,2013-05-29 04:43:00,
2013-05-29 00:44:00,58.9,57.5,30.15,SW,222,0.0,238.7,95,4.69,,,0.26,VWS V14.01,2013-05-29 04:44:00,
2013-05-29 00:45:00,58.8,57.5,30.14,SW,222,0.0,238.7,95,4.69,,,0.00,VWS V14.01,2013-05-29 04:45:00,
2013-05-29 00:46:00,58.8,57.5,30.14,SW,222,0.0,238.7,96,4.69,,,0.00,VWS V14.01,2013-05-29 04:46:00,
2013-05-29 00:47:00,58.9,57.6,30.14,SW,222,0.0,238.7,96,4.69,,,0.00,VWS V14.01,2013-05-29 04:47:00,
2013-05-29 00:48:00,58.8,57.5,30.14,SW,222,0.0,238.7,96,4.69,,,0.00,VWS V14.01,2013-05-29 04:48:00,
2013-05-29 00:49:00,58.8,57.5,30.14,SW,222,0.0,238.7,96,4.69,,,0.00,VWS V14.01,2013-05-29 04:49:00,
2013-05-29 00:50:00,58.8,57.4,30.15,SW,222,0.0,238.7,95,4.69,,,0.26,VWS V14.01,2013-05-29 04:50:00,
2013-05-29 00:51:00,58.8,57.5,30.14,SW,222,0.0,238.7,96,4.69,,,0.00,VWS V14.01,2013-05-29 04:51:00,
2013-05-29 00:52:00,58.8,57.5,30.14,SW,222,0.0,238.7,96,4.69,,,0.00,VWS V14.01,2013-05-29 04:52:00,
2013-05-29 00:54:00,58.8,57.5,30.14,SW,222,0.0,238.7,96,4.69,,,0.00,VWS V14.01,2013-05-29 04:54:00,
2013-05-29 00:55:00,58.8,57.5,30.14,SW,222,0.0,238.7,96,4.69,,,0.00,VWS V14.01,2013-05-29 04:55:00,
2013-05-29 00:56:00,58.8,57.4,30.15,SW,222,0.0,238.7,95,4.69,,,0.26,VWS V14.01,2013-05-29 04:56:00,
2013-05-29 00:57:00,58.8,57.5,30.13,SW,222,0.0,238.7,96,4.69,,,0.00,VWS V14.01,2013-05-29 04:57:00,
2013-05-29 00:59:00,58.8,57.5,30.13,SW,222,0.0,238.7,96,4.69,,,0.00,VWS V14.01,2013-05-29 04:59:00,
2013-05-29 01:00:00,58.8,57.5,30.13,SW,222,0.0,238.7,96,4.69,,,0.00,VWS V14.01,2013-05-29 05:00:00,
2013-05-29 01:02:00,58.8,57.5,30.13,SW,222,0.0,238.7,96,4.69,,,0.00,VWS V14.01,2013-05-29 05:02:00,
2013-05-29 01:03:00,58.8,57.5,30.13,SW,222,0.0,238.7,96,4.69,,,0.00,VWS V14.01,2013-05-29 05:03:00,
2013-05-29 01:06:00,58.8,57.5,30.13,SW,222,0.0,238.7,96,4.69,,,0.00,VWS V14.01,2013-05-29 05:06:00,
2013-05-29 01:08:00,58.8,57.5,30.13,SW,222,0.0,238.7,96,4.69,,,0.00,VWS V14.01,2013-05-29 05:08:00,
2013-05-29 01:11:00,58.8,57.5,30.13,SW,222,0.0,238.7,96,4.69,,,0.00,VWS V14.01,2013-05-29 05:11:00,
2013-05-29 01:13:00,58.8,57.5,30.13,SW,222,0.0,238.7,96,4.69,,,0.00,VWS V14.01,2013-05-29 05:13:00,
2013-05-29 01:14:00,58.8,57.5,30.13,SW,222,0.0,238.7,96,4.69,,,0.00,VWS V14.01,2013-05-29 05:14:00,
2013-05-29 01:15:00,58.8,57.5,30.13,SW,222,0.0,238.7,96,4.69,,,0.00,VWS V14.01,2013-05-29 05:15:00,
2013-05-29 01:17:00,58.9,57.6,30.13,SW,222,0.0,238.7,96,4.69,,,0.00,VWS V14.01,2013-05-29 05:17:00,
2013-05-29 01:18:00,58.9,57.6,30.13,SW,222,0.0,238.7,96,4.69,,,0.00,VWS V14.01,2013-05-29 05:18:00,
2013-05-29 01:19:00,58.9,57.6,30.13,SW,222,0.0,238.7,96,4.69,,,0.00,VWS V14.01,2013-05-29 05:19:00,
2013-05-29 01:20:00,58.9,57.6,30.12,SW,222,0.0,238.7,96,4.69,,,0.00,VWS V14.01,2013-05-29 05:20:00,
2013-05-29 01:21:00,58.9,57.6,30.13,SW,222,0.0,238.7,96,4.69,,,0.00,VWS V14.01,2013-05-29 05:21:00,
2013-05-29 01:22:00,58.9,57.7,30.12,SW,222,0.0,238.7,96,4.69,,,0.00,VWS V14.01,2013-05-29 05:22:00,
2013-05-29 01:23:00,58.8,57.5,30.13,SW,222,0.0,238.7,96,4.69,,,0.00,VWS V14.01,2013-05-29 05:23:00,
2013-05-29 01:24:00,58.9,57.7,30.13,SW,222,0.0,238.7,96,4.69,,,0.00,VWS V14.01,2013-05-29 05:24:00,
2013-05-29 01:26:00,58.8,57.5,30.13,SW,222,0.0,238.7,96,4.69,,,0.00,VWS V14.01,2013-05-29 05:26:00,
2013-05-29 01:27:00,58.9,57.7,30.13,SW,222,0.0,238.7,96,4.69,,,0.00,VWS V14.01,2013-05-29 05:27:00,
2013-05-29 01:29:00,58.9,57.7,30.13,SW,222,0.0,238.7,96,4.69,,,0.00,VWS V14.01,2013-05-29 05:29:00,
2013-05-29 01:31:00,58.9,57.7,30.13,SW,222,0.0,238.7,96,4.69,,,0.00,VWS V14.01,2013-05-29 05:31:00,
2013-05-29 01:32:00,58.8,57.5,30.13,SW,222,0.0,238.7,96,4.69,,,0.00,VWS V14.01,2013-05-29 05:32:00,
2013-05-29 01:33:00,58.9,57.7,30.13,SW,222,0.0,238.7,96,4.69,,,0.00,VWS V14.01,2013-05-29 05:33:00,
2013-05-29 01:34:00,58.9,57.7,30.13,SW,222,0.0,238.7,96,4.69,,,0.00,VWS V14.01,2013-05-29 05:34:00,
2013-05-29 01:35:00,58.8,57.5,30.13,SW,222,0.0,238.7,96,4.69,,,0.00,VWS V14.01,2013-05-29 05:35:00,
2013-05-29 01:36:00,58.9,57.6,30.12,SW,222,0.0,238.7,96,4.69,,,0.00,VWS V14.01,2013-05-29 05:36:00,
2013-05-29 01:38:00,58.9,57.7,30.13,SW,222,0.0,238.7,96,4.69,,,0.00,VWS V14.01,2013-05-29 05:38:00,
2013-05-29 01:39:00,58.9,57.7,30.13,SW,222,0.0,238.7,96,4.69,,,0.00,VWS V14.01,2013-05-29 05:39:00,
2013-05-29 01:40:00,58.9,57.7,30.13,SW,222,0.0,238.7,96,4.69,,,0.00,VWS V14.01,2013-05-29 05:40:00,
2013-05-29 01:42:00,58.8,57.6,30.12,SW,222,0.0,238.7,96,4.69,,,0.00,VWS V14.01,2013-05-29 05:42:00,
2013-05-29 01:43:00,58.8,57.6,30.12,SW,222,0.0,238.7,96,4.69,,,0.00,VWS V14.01,2013-05-29 05:43:00,
2013-05-29 01:44:00,58.8,57.6,30.12,SW,222,0.0,238.7,96,4.69,,,0.00,VWS V14.01,2013-05-29 05:44:00,
2013-05-29 01:46:00,58.9,57.7,30.12,SW,222,0.0,238.7,96,4.69,,,0.00,VWS V14.01,2013-05-29 05:46:00,
2013-05-29 01:47:00,58.8,57.6,30.12,SW,222,0.0,238.7,96,4.69,,,0.00,VWS V14.01,2013-05-29 05:47:00,
2013-05-29 01:48:00,58.8,57.6,30.12,SW,222,0.0,238.7,96,4.69,,,0.00,VWS V14.01,2013-05-29 05:48:00,
2013-05-29 01:49:00,58.8,57.6,30.12,SW,222,0.0,238.7,96,4.69,,,0.00,VWS V14.01,2013-05-29 05:49:00,
2013-05-29 01:55:00,58.8,57.5,30.13,SW,222,0.0,238.7,96,4.69,,,0.00,VWS V14.01,2013-05-29 05:55:00,
2013-05-29 01:58:00,58.9,57.7,30.12,SW,222,0.0,238.7,96,4.69,,,0.00,VWS V14.01,2013-05-29 05:58:00,
2013-05-29 02:00:00,58.8,57.6,30.12,SW,222,0.0,238.7,96,4.69,,,0.00,VWS V14.01,2013-05-29 06:00:00,
2013-05-29 02:02:00,58.8,57.5,30.13,SW,222,0.0,238.7,96,4.69,,,0.00,VWS V14.01,2013-05-29 06:02:00,
2013-05-29 02:03:00,58.9,57.7,30.11,SW,222,0.0,238.7,96,4.69,,,0.00,VWS V14.01,2013-05-29 06:03:00,
2013-05-29 02:04:00,58.8,57.6,30.11,SW,222,0.0,238.7,96,4.69,,,0.00,VWS V14.01,2013-05-29 06:04:00,
2013-05-29 02:05:00,58.9,57.7,30.11,SW,222,0.0,238.7,96,4.69,,,0.00,VWS V14.01,2013-05-29 06:05:00,
2013-05-29 02:07:00,58.9,57.7,30.13,SW,222,0.0,238.7,96,4.69,,,0.00,VWS V14.01,2013-05-29 06:07:00,
2013-05-29 02:08:00,58.8,57.6,30.10,SW,222,0.0,238.7,96,4.69,,,0.00,VWS V14.01,2013-05-29 06:08:00,
2013-05-29 02:09:00,58.8,57.6,30.11,SW,222,0.0,238.7,96,4.69,,,0.00,VWS V14.01,2013-05-29 06:09:00,
2013-05-29 02:13:00,58.8,57.7,30.11,SW,222,0.0,238.7,96,4.69,,,0.00,VWS V14.01,2013-05-29 06:13:00,
2013-05-29 02:14:00,58.9,57.6,30.13,SW,222,0.0,238.7,96,4.69,,,0.00,VWS V14.01,2013-05-29 06:14:00,
2013-05-29 02:16:00,58.8,57.7,30.11,SW,222,0.0,238.7,96,4.69,,,0.00,VWS V14.01,2013-05-29 06:16:00,
2013-05-29 02:25:00,58.9,57.7,30.13,SW,222,0.0,238.7,96,4.69,,,0.00,VWS V14.01,2013-05-29 06:25:00,
2013-05-29 02:34:00,58.9,57.7,30.13,SW,222,0.0,238.7,96,4.69,,,0.00,VWS V14.01,2013-05-29 06:34:00,
2013-05-29 02:43:00,58.8,57.6,30.12,SW,222,0.0,238.7,96,4.69,,,0.00,VWS V14.01,2013-05-29 06:43:00,
2013-05-29 02:48:00,58.9,57.7,30.12,SW,222,0.0,238.7,96,4.69,,,0.00,VWS V14.01,2013-05-29 06:48:00,
2013-05-29 02:53:00,58.9,57.7,30.12,SW,222,0.0,238.7,96,4.69,,,0.00,VWS V14.01,2013-05-29 06:53:00,
2013-05-29 02:58:00,58.9,57.7,30.12,SW,222,0.0,238.7,96,4.69,,,0.00,VWS V14.01,2013-05-29 06:58:00,
2013-05-29 03:04:00,58.8,57.6,30.11,SW,222,0.0,238.7,96,4.69,,,0.00,VWS V14.01,2013-05-29 07:04:00,
2013-05-29 03:09:00,58.8,57.6,30.11,SW,222,0.0,238.7,96,4.69,,,0.00,VWS V14.01,2013-05-29 07:09:00,
2013-05-29 03:15:00,58.8,57.7,30.11,SW,222,0.0,238.7,96,4.69,,,0.00,VWS V14.01,2013-05-29 07:15:00,
2013-05-29 03:20:00,58.7,57.6,30.10,SW,222,0.0,238.7,96,4.69,,,0.00,VWS V14.01,2013-05-29 07:20:00,
2013-05-29 03:25:00,58.7,57.6,30.11,SW,222,0.0,238.7,96,4.69,,,0.00,VWS V14.01,2013-05-29 07:25:00,
2013-05-29 03:31:00,58.7,57.6,30.10,SW,222,0.0,238.7,96,4.69,,,0.00,VWS V14.01,2013-05-29 07:31:00,
2013-05-29 03:36:00,58.7,57.7,30.10,SW,222,0.0,238.7,96,4.69,,,0.00,VWS V14.01,2013-05-29 07:36:00,
2013-05-29 03:41:00,58.8,57.7,30.11,SW,222,0.0,238.7,96,4.69,,,0.00,VWS V14.01,2013-05-29 07:41:00,
2013-05-29 03:46:00,58.8,57.7,30.10,SW,222,0.0,238.7,96,4.69,,,0.00,VWS V14.01,2013-05-29 07:46:00,
2013-05-29 03:51:00,58.9,57.8,30.10,SW,222,0.0,238.7,96,4.69,,,0.00,VWS V14.01,2013-05-29 07:51:00,
2013-05-29 03:57:00,58.8,57.7,30.10,SW,222,0.0,238.7,96,4.69,,,0.00,VWS V14.01,2013-05-29 07:57:00,
2013-05-29 04:02:00,58.9,57.8,30.10,SW,222,0.0,238.7,96,4.69,,,0.00,VWS V14.01,2013-05-29 08:02:00,
2013-05-29 04:07:00,58.8,57.7,30.10,SW,222,0.0,238.7,96,4.69,,,0.00,VWS V14.01,2013-05-29 08:07:00,
2013-05-29 04:12:00,58.8,57.7,30.10,SW,222,0.0,238.7,96,4.69,,,0.00,VWS V14.01,2013-05-29 08:12:00,
2013-05-29 04:17:00,58.8,57.7,30.10,SW,222,0.0,238.7,96,4.69,,,0.00,VWS V14.01,2013-05-29 08:17:00,
2013-05-29 04:23:00,58.8,57.7,30.10,SW,222,0.0,238.7,96,4.69,,,0.00,VWS V14.01,2013-05-29 08:23:00,
2013-05-29 04:28:00,58.8,57.7,30.10,SW,222,0.0,238.7,96,4.69,,,0.00,VWS V14.01,2013-05-29 08:28:00,
2013-05-29 04:33:00,58.8,57.7,30.10,SW,222,0.0,238.7,96,4.69,,,0.00,VWS V14.01,2013-05-29 08:33:00,
2013-05-29 04:38:00,58.8,57.7,30.10,SW,222,0.0,238.7,96,4.69,,,0.00,VWS V14.01,2013-05-29 08:38:00,
2013-05-29 04:43:00,58.8,57.7,30.10,SW,222,0.0,238.7,96,4.69,,,0.00,VWS V14.01,2013-05-29 08:43:00,
2013-05-29 04:48:00,58.8,57.7,30.10,SW,222,0.0,238.7,96,4.69,,,0.00,VWS V14.01,2013-05-29 08:48:00,
2013-05-29 04:54:00,58.8,57.7,30.10,SW,222,0.0,238.7,96,4.69,,,0.00,VWS V14.01,2013-05-29 08:54:00,
2013-05-29 04:59:00,58.8,57.8,30.10,SW,222,0.0,238.7,96,4.69,,,0.00,VWS V14.01,2013-05-29 08:59:00,
2013-05-29 05:04:00,58.8,57.7,30.10,SW,222,0.0,238.7,96,4.69,,,0.00,VWS V14.01,2013-05-29 09:04:00,
2013-05-29 05:09:00,58.8,57.7,30.10,SW,222,0.0,238.7,96,4.69,,,0.00,VWS V14.01,2013-05-29 09:09:00,
2013-05-29 05:14:00,58.8,57.8,30.10,SW,222,0.0,238.7,96,4.69,,,0.00,VWS V14.01,2013-05-29 09:14:00,
2013-05-29 05:20:00,58.9,57.8,30.10,SW,222,0.0,238.7,96,4.69,,,0.00,VWS V14.01,2013-05-29 09:20:00,
2013-05-29 05:25:00,58.9,57.8,30.10,SW,222,0.0,238.7,96,4.69,,,0.00,VWS V14.01,2013-05-29 09:25:00,
2013-05-29 05:30:00,58.9,57.8,30.10,SW,222,0.0,238.7,96,4.69,,,0.00,VWS V14.01,2013-05-29 09:30:00,
2013-05-29 05:35:00,58.9,57.8,30.10,SW,222,0.0,238.7,96,4.69,,,0.00,VWS V14.01,2013-05-29 09:35:00,
2013-05-29 05:40:00,58.8,57.8,30.10,SW,222,0.0,238.7,96,4.69,,,0.00,VWS V14.01,2013-05-29 09:40:00,
2013-05-29 05:46:00,58.9,57.8,30.10,SW,222,0.0,238.7,96,4.69,,,0.00,VWS V14.01,2013-05-29 09:46:00,
2013-05-29 05:51:00,58.9,57.9,30.10,SW,222,0.0,238.7,96,4.69,,,0.00,VWS V14.01,2013-05-29 09:51:00,
2013-05-29 05:56:00,58.9,57.9,30.11,SW,222,0.0,238.7,96,4.69,,,0.00,VWS V14.01,2013-05-29 09:56:00,
2013-05-29 06:01:00,58.9,57.9,30.10,SW,222,0.0,238.7,96,4.69,,,0.00,VWS V14.01,2013-05-29 10:01:00,
2013-05-29 06:06:00,58.9,57.8,30.10,SW,222,0.0,238.7,96,4.69,,,0.00,VWS V14.01,2013-05-29 10:06:00,
2013-05-29 06:12:00,58.9,57.8,30.10,SW,222,0.0,238.7,96,4.69,,,0.00,VWS V14.01,2013-05-29 10:12:00,
2013-05-29 06:17:00,59.0,58.0,30.10,SW,222,0.0,238.7,96,4.69,,,0.00,VWS V14.01,2013-05-29 10:17:00,
2013-05-29 06:22:00,59.1,58.0,30.11,SW,222,0.0,238.7,96,4.69,,,0.00,VWS V14.01,2013-05-29 10:22:00,
2013-05-29 06:27:00,59.1,58.0,30.11,SW,222,0.0,238.7,96,4.69,,,0.00,VWS V14.01,2013-05-29 10:27:00,
2013-05-29 06:32:00,59.1,58.0,30.11,SW,222,0.0,238.7,96,4.69,,,0.00,VWS V14.01,2013-05-29 10:32:00,
2013-05-29 06:38:00,59.1,58.0,30.11,SW,222,0.0,238.7,96,4.69,,,0.00,VWS V14.01,2013-05-29 10:38:00,
2013-05-29 06:43:00,59.2,58.1,30.12,SW,222,0.0,238.7,96,4.69,,,0.00,VWS V14.01,2013-05-29 10:43:00,
2013-05-29 06:48:00,59.2,58.2,30.12,SW,222,0.0,238.7,96,4.69,,,0.00,VWS V14.01,2013-05-29 10:48:00,
2013-05-29 06:53:00,59.1,58.0,30.12,SW,222,0.0,238.7,96,4.69,,,0.00,VWS V14.01,2013-05-29 10:53:00,
2013-05-29 06:58:00,59.2,58.2,30.12,SW,222,0.0,238.7,96,4.69,,,0.00,VWS V14.01,2013-05-29 10:58:00,
2013-05-29 07:03:00,59.2,58.2,30.11,SW,222,0.0,238.7,96,4.69,,,0.00,VWS V14.01,2013-05-29 11:03:00,
2013-05-29 07:09:00,59.3,58.3,30.12,SW,222,0.0,238.7,96,4.69,,,0.00,VWS V14.01,2013-05-29 11:09:00,
2013-05-29 07:14:00,59.3,58.3,30.12,SW,222,0.0,238.7,96,4.69,,,0.00,VWS V14.01,2013-05-29 11:14:00,
2013-05-29 07:19:00,59.3,58.3,30.12,SW,222,0.0,238.7,96,4.69,,,0.00,VWS V14.01,2013-05-29 11:19:00,
2013-05-29 07:24:00,59.2,58.2,30.12,SW,222,0.0,238.7,96,4.69,,,0.00,VWS V14.01,2013-05-29 11:24:00,
2013-05-29 07:30:00,59.3,58.3,30.12,SW,222,0.0,238.7,96,4.69,,,0.00,VWS V14.01,2013-05-29 11:30:00,
2013-05-29 07:35:00,59.4,58.4,30.12,SW,222,0.0,238.7,96,4.69,,,0.00,VWS V14.01,2013-05-29 11:35:00,
2013-05-29 07:40:00,59.5,58.5,30.12,SW,222,0.0,238.7,96,4.69,,,0.00,VWS V14.01,2013-05-29 11:40:00,
2013-05-29 07:45:00,59.5,58.5,30.12,SW,222,0.0,238.7,96,4.69,,,0.00,VWS V14.01,2013-05-29 11:45:00,
2013-05-29 07:51:00,59.7,58.7,30.12,SW,222,0.0,238.7,96,4.69,,,0.00,VWS V14.01,2013-05-29 11:51:00,
2013-05-29 07:56:00,59.8,58.8,30.12,SW,222,0.0,238.7,96,4.69,,,0.00,VWS V14.01,2013-05-29 11:56:00,
2013-05-29 08:01:00,60.0,59.0,30.12,SW,222,0.0,238.7,96,4.69,,,0.00,VWS V14.01,2013-05-29 12:01:00,
2013-05-29 08:06:00,60.1,59.0,30.12,SW,222,0.0,238.7,96,4.69,,,0.00,VWS V14.01,2013-05-29 12:06:00,
2013-05-29 08:11:00,60.2,59.1,30.12,SW,222,0.0,238.7,96,4.69,,,0.00,VWS V14.01,2013-05-29 12:11:00,
2013-05-29 08:16:00,60.2,59.2,30.12,SW,222,0.0,238.7,96,4.69,,,0.00,VWS V14.01,2013-05-29 12:16:00,
2013-05-29 08:22:00,60.3,59.2,30.12,SW,222,0.0,238.7,96,4.69,,,0.00,VWS V14.01,2013-05-29 12:22:00,
2013-05-29 08:27:00,60.5,59.4,30.12,SW,222,0.0,238.7,96,4.69,,,0.00,VWS V14.01,2013-05-29 12:27:00,
2013-05-29 08:32:00,60.5,59.4,30.12,SW,222,0.0,238.7,96,4.70,,,0.01,VWS V14.01,2013-05-29 12:32:00,
2013-05-29 08:37:00,60.5,59.4,30.12,SW,222,0.0,238.7,96,4.70,,,0.01,VWS V14.01,2013-05-29 12:37:00,
2013-05-29 08:43:00,60.7,59.6,30.12,SW,222,0.0,238.7,96,4.70,,,0.01,VWS V14.01,2013-05-29 12:43:00,
2013-05-29 08:48:00,60.7,59.6,30.12,SW,222,0.0,238.7,96,4.70,,,0.01,VWS V14.01,2013-05-29 12:48:00,
2013-05-29 08:53:00,60.9,59.8,30.12,SW,222,0.0,238.7,96,4.70,,,0.01,VWS V14.01,2013-05-29 12:53:00,
2013-05-29 08:58:00,61.0,59.9,30.12,SW,222,0.0,238.7,96,4.70,,,0.01,VWS V14.01,2013-05-29 12:58:00,
2013-05-29 09:03:00,61.2,60.0,30.12,SW,222,0.0,238.7,96,4.70,,,0.01,VWS V14.01,2013-05-29 13:03:00,
2013-05-29 09:09:00,61.5,60.3,30.12,SW,222,0.0,238.7,96,4.70,,,0.01,VWS V14.01,2013-05-29 13:09:00,
2013-05-29 09:14:00,61.7,60.5,30.11,SW,222,0.0,238.7,96,4.70,,,0.01,VWS V14.01,2013-05-29 13:14:00,
2013-05-29 09:19:00,62.0,60.8,30.11,SW,222,0.0,238.7,96,4.70,,,0.01,VWS V14.01,2013-05-29 13:19:00,
2013-05-29 09:24:00,62.1,60.8,30.11,SW,222,0.0,238.7,96,4.70,,,0.01,VWS V14.01,2013-05-29 13:24:00,
2013-05-29 09:29:00,62.2,60.8,30.11,SW,222,0.0,238.7,95,4.70,,,0.01,VWS V14.01,2013-05-29 13:29:00,
2013-05-29 09:35:00,62.4,61.1,30.11,SW,222,0.0,238.7,95,4.70,,,0.01,VWS V14.01,2013-05-29 13:35:00,
2013-05-29 09:40:00,62.6,61.2,30.11,SW,222,0.0,238.7,95,4.70,,,0.01,VWS V14.01,2013-05-29 13:40:00,
2013-05-29 09:45:00,62.8,61.3,30.12,SW,222,0.0,238.7,95,4.70,,,0.01,VWS V14.01,2013-05-29 13:45:00,
2013-05-29 09:51:00,62.7,61.1,30.12,SW,222,0.0,238.7,95,4.70,,,0.01,VWS V14.01,2013-05-29 13:51:00,
2013-05-29 09:56:00,62.7,61.2,30.12,SW,222,0.0,238.7,95,4.70,,,0.01,VWS V14.01,2013-05-29 13:56:00,
2013-05-29 10:02:00,63.0,61.6,30.11,SW,222,0.0,238.7,95,4.70,,,0.01,VWS V14.01,2013-05-29 14:02:00,
2013-05-29 10:07:00,63.3,61.8,30.12,SW,222,0.0,238.7,95,4.70,,,0.01,VWS V14.01,2013-05-29 14:07:00,
2013-05-29 10:13:00,63.4,61.8,30.12,SW,222,0.0,238.7,94,4.70,,,0.01,VWS V14.01,2013-05-29 14:13:00,
2013-05-29 10:18:00,63.6,62.0,30.12,SW,222,0.0,238.7,94,4.70,,,0.01,VWS V14.01,2013-05-29 14:18:00,
2013-05-29 10:24:00,63.8,62.2,30.11,SW,222,0.0,238.7,94,4.70,,,0.01,VWS V14.01,2013-05-29 14:24:00,
2013-05-29 10:29:00,64.0,62.3,30.12,SW,222,0.0,238.7,94,4.70,,,0.01,VWS V14.01,2013-05-29 14:29:00,
2013-05-29 10:34:00,64.3,62.5,30.11,SW,222,0.0,238.7,94,4.70,,,0.01,VWS V14.01,2013-05-29 14:34:00,
2013-05-29 10:39:00,64.6,62.8,30.11,SW,222,0.0,238.7,94,4.70,,,0.01,VWS V14.01,2013-05-29 14:39:00,
2013-05-29 10:45:00,65.0,63.1,30.12,SW,222,0.0,238.7,94,4.70,,,0.01,VWS V14.01,2013-05-29 14:45:00,
2013-05-29 10:50:00,65.5,63.6,30.12,SW,222,0.0,238.7,94,4.70,,,0.01,VWS V14.01,2013-05-29 14:50:00,
2013-05-29 10:55:00,66.2,64.3,30.12,SW,222,0.0,238.7,94,4.70,,,0.01,VWS V14.01,2013-05-29 14:55:00,
2013-05-29 11:01:00,66.6,64.4,30.12,SW,222,0.0,238.7,92,4.70,,,0.01,VWS V14.01,2013-05-29 15:01:00,
2013-05-29 11:06:00,66.9,64.6,30.11,SW,222,0.0,238.7,92,4.70,,,0.01,VWS V14.01,2013-05-29 15:06:00,
2013-05-29 11:11:00,67.2,64.7,30.11,SW,222,0.0,238.7,92,4.70,,,0.01,VWS V14.01,2013-05-29 15:11:00,
2013-05-29 11:16:00,68.0,65.4,30.11,SW,222,0.0,238.7,92,4.70,,,0.01,VWS V14.01,2013-05-29 15:16:00,
2013-05-29 11:21:00,68.1,64.8,30.11,SW,222,0.0,238.7,89,4.70,,,0.01,VWS V14.01,2013-05-29 15:21:00,
2013-05-29 11:26:00,68.2,65.3,30.10,SW,222,0.0,238.7,91,4.70,,,0.01,VWS V14.01,2013-05-29 15:26:00,
2013-05-29 11:32:00,68.5,65.6,30.10,SW,222,0.0,238.7,90,4.70,,,0.01,VWS V14.01,2013-05-29 15:32:00,
2013-05-29 11:37:00,69.0,66.1,30.10,SW,222,0.0,238.7,90,4.70,,,0.01,VWS V14.01,2013-05-29 15:37:00,
2013-05-29 11:42:00,69.7,66.0,30.11,SW,222,0.0,238.7,88,4.70,,,0.01,VWS V14.01,2013-05-29 15:42:00,
2013-05-29 11:47:00,69.6,65.3,30.11,SW,222,0.0,238.7,86,4.70,,,0.01,VWS V14.01,2013-05-29 15:47:00,
2013-05-29 11:52:00,69.4,65.5,30.10,SW,222,0.0,238.7,87,4.70,,,0.01,VWS V14.01,2013-05-29 15:52:00,
2013-05-29 11:58:00,69.5,66.0,30.10,SW,222,0.0,238.7,89,4.70,,,0.01,VWS V14.01,2013-05-29 15:58:00,
2013-05-29 12:03:00,70.5,66.8,30.10,SW,222,0.0,238.7,88,4.70,,,0.01,VWS V14.01,2013-05-29 16:03:00,
2013-05-29 12:08:00,70.9,65.4,30.10,SW,222,0.0,238.7,83,4.70,,,0.01,VWS V14.01,2013-05-29 16:08:00,
2013-05-29 12:13:00,71.2,66.0,30.10,SW,226,0.0,238.7,84,4.70,,,0.01,VWS V14.01,2013-05-29 16:13:00,
2013-05-29 12:18:00,71.8,67.0,30.10,SW,226,0.0,238.7,85,4.70,,,0.01,VWS V14.01,2013-05-29 16:18:00,
2013-05-29 12:23:00,72.7,67.0,30.10,SW,226,0.0,238.7,82,4.70,,,0.01,VWS V14.01,2013-05-29 16:23:00,
2013-05-29 12:29:00,73.2,66.8,30.09,SW,226,0.0,238.7,80,4.70,,,0.01,VWS V14.01,2013-05-29 16:29:00,
2013-05-29 12:34:00,73.4,66.9,30.09,SW,226,0.0,238.7,80,4.70,,,0.01,VWS V14.01,2013-05-29 16:34:00,
2013-05-29 12:39:00,73.7,66.6,30.09,SSW,202,0.0,238.7,79,4.70,,,0.01,VWS V14.01,2013-05-29 16:39:00,
2013-05-29 12:44:00,74.0,66.3,30.09,SSW,202,0.0,238.7,77,4.70,,,0.01,VWS V14.01,2013-05-29 16:44:00,
2013-05-29 12:49:00,74.1,66.9,30.09,SSW,202,0.0,238.7,78,4.70,,,0.01,VWS V14.01,2013-05-29 16:49:00,
2013-05-29 12:54:00,74.3,66.9,30.09,WNW,302,0.0,238.7,78,4.70,,,0.01,VWS V14.01,2013-05-29 16:54:00,
2013-05-29 13:00:00,74.4,67.1,30.10,SSE,165,0.0,238.7,78,4.70,,,0.01,VWS V14.01,2013-05-29 17:00:00,
2013-05-29 13:05:00,74.7,66.7,30.10,South,180,0.0,238.7,76,4.70,,,0.01,VWS V14.01,2013-05-29 17:05:00,
2013-05-29 13:10:00,75.1,67.6,30.10,WNW,283,0.0,238.7,77,4.70,,,0.01,VWS V14.01,2013-05-29 17:10:00,
2013-05-29 13:15:00,75.8,67.4,30.10,WSW,238,0.0,238.7,75,4.70,,,0.01,VWS V14.01,2013-05-29 17:15:00,
2013-05-29 13:20:00,76.4,68.0,30.09,WNW,301,0.0,238.7,75,4.70,,,0.01,VWS V14.01,2013-05-29 17:20:00,
2013-05-29 13:26:00,77.0,67.8,30.09,WNW,301,0.0,238.7,73,4.70,,,0.01,VWS V14.01,2013-05-29 17:26:00,
2013-05-29 13:31:00,77.2,67.5,30.09,WNW,294,0.0,238.7,72,4.70,,,0.01,VWS V14.01,2013-05-29 17:31:00,
2013-05-29 13:36:00,77.4,67.0,30.09,SSW,195,4.5,238.7,70,4.70,,,0.01,VWS V14.01,2013-05-29 17:36:00,
2013-05-29 13:41:00,77.7,67.8,30.09,SSE,155,0.0,238.7,72,4.70,,,0.01,VWS V14.01,2013-05-29 17:41:00,
2013-05-29 13:46:00,78.0,66.5,30.08,NNW,329,0.0,238.7,68,4.70,,,0.01,VWS V14.01,2013-05-29 17:46:00,
2013-05-29 13:51:00,78.4,67.9,30.08,ESE,112,0.0,238.7,70,4.70,,,0.01,VWS V14.01,2013-05-29 17:51:00,
2013-05-29 13:57:00,78.9,67.9,30.08,West,259,0.0,238.7,69,4.70,,,0.01,VWS V14.01,2013-05-29 17:57:00,
2013-05-29 14:02:00,79.4,68.3,30.08,NW,309,0.0,238.7,69,4.70,,,0.01,VWS V14.01,2013-05-29 18:02:00,
2013-05-29 14:07:00,79.9,68.5,30.08,SW,235,0.0,238.7,68,4.70,,,0.01,VWS V14.01,2013-05-29 18:07:00,
2013-05-29 14:12:00,80.2,67.9,30.08,SE,129,0.0,238.7,66,4.70,,,0.01,VWS V14.01,2013-05-29 18:12:00,
2013-05-29 14:17:00,81.1,67.6,30.08,WSW,255,0.0,238.7,64,4.70,,,0.01,VWS V14.01,2013-05-29 18:17:00,
2013-05-29 14:23:00,81.1,67.6,30.07,SW,226,0.0,238.7,64,4.70,,,0.01,VWS V14.01,2013-05-29 18:23:00,
2013-05-29 14:28:00,80.9,68.2,30.07,NE,37,0.0,238.7,65,4.70,,,0.01,VWS V14.01,2013-05-29 18:28:00,
2013-05-29 14:33:00,80.4,67.6,30.08,South,190,0.0,238.7,65,4.70,,,0.01,VWS V14.01,2013-05-29 18:33:00,
2013-05-29 14:38:00,80.1,68.1,30.08,South,181,0.0,238.7,67,4.70,,,0.01,VWS V14.01,2013-05-29 18:38:00,
2013-05-29 14:43:00,80.2,67.4,30.07,SW,232,4.4,238.7,65,4.70,,,0.01,VWS V14.01,2013-05-29 18:43:00,
2013-05-29 14:49:00,80.3,67.7,30.07,SW,228,0.0,238.7,66,4.70,,,0.01,VWS V14.01,2013-05-29 18:49:00,
2013-05-29 14:54:00,81.2,68.2,30.07,WSW,249,4.3,238.7,65,4.70,,,0.01,VWS V14.01,2013-05-29 18:54:00,
2013-05-29 14:59:00,82.0,67.7,30.07,NW,309,0.0,238.7,62,4.70,,,0.01,VWS V14.01,2013-05-29 18:59:00,
2013-05-29 15:04:00,82.5,68.4,30.07,WNW,283,0.0,238.7,62,4.70,,,0.01,VWS V14.01,2013-05-29 19:04:00,
2013-05-29 15:09:00,82.5,67.9,30.07,WSW,246,8.6,238.7,61,4.70,,,0.01,VWS V14.01,2013-05-29 19:09:00,
2013-05-29 15:14:00,82.4,68.5,30.07,SW,235,0.0,238.7,63,4.70,,,0.01,VWS V14.01,2013-05-29 19:14:00,
2013-05-29 15:20:00,82.7,68.7,30.07,South,170,0.0,238.7,63,4.70,,,0.01,VWS V14.01,2013-05-29 19:20:00,
2013-05-29 15:25:00,82.8,68.2,30.07,South,176,0.0,238.7,61,4.70,,,0.01,VWS V14.01,2013-05-29 19:25:00,
2013-05-29 15:30:00,82.8,68.3,30.07,SW,217,0.0,238.7,62,4.70,,,0.01,VWS V14.01,2013-05-29 19:30:00,
2013-05-29 15:35:00,82.9,68.7,30.07,NE,51,0.0,238.7,62,4.70,,,0.01,VWS V14.01,2013-05-29 19:35:00,
2013-05-29 15:40:00,83.0,68.1,30.07,West,269,0.0,238.7,61,4.70,,,0.01,VWS V14.01,2013-05-29 19:40:00,
2013-05-29 15:45:00,83.1,68.3,30.07,South,191,0.0,238.7,61,4.70,,,0.01,VWS V14.01,2013-05-29 19:45:00,
2013-05-29 15:51:00,83.7,68.7,30.06,NW,325,0.0,238.7,61,4.70,,,0.01,VWS V14.01,2013-05-29 19:51:00,
2013-05-29 15:56:00,84.1,68.0,30.05,SE,134,4.6,238.7,59,4.70,,,0.01,VWS V14.01,2013-05-29 19:56:00,
2013-05-29 16:01:00,84.2,69.6,30.05,SSE,167,0.0,238.7,62,4.70,,,0.01,VWS V14.01,2013-05-29 20:01:00,
2013-05-29 16:06:00,84.0,67.6,30.05,WNW,302,0.0,238.7,58,4.70,,,0.01,VWS V14.01,2013-05-29 20:06:00,
2013-05-29 16:11:00,83.8,68.6,30.06,South,187,0.0,238.7,60,4.70,,,0.01,VWS V14.01,2013-05-29 20:11:00,
2013-05-29 16:17:00,83.5,67.2,30.06,SW,214,0.0,238.7,58,4.70,,,0.01,VWS V14.01,2013-05-29 20:17:00,
2013-05-29 16:22:00,84.0,68.6,30.06,SW,219,0.0,238.7,60,4.70,,,0.01,VWS V14.01,2013-05-29 20:22:00,
2013-05-29 16:28:00,83.9,67.7,30.06,West,264,1.2,238.7,58,4.70,,,0.01,VWS V14.01,2013-05-29 20:28:00,
2013-05-29 16:33:00,83.6,67.2,30.06,South,173,0.0,238.7,58,4.70,,,0.01,VWS V14.01,2013-05-29 20:33:00,
2013-05-29 16:38:00,83.8,68.0,30.06,SW,235,0.0,238.7,59,4.70,,,0.01,VWS V14.01,2013-05-29 20:38:00,
2013-05-29 16:43:00,84.1,67.5,30.06,WSW,245,0.0,238.7,58,4.70,,,0.01,VWS V14.01,2013-05-29 20:43:00,
2013-05-29 16:49:00,84.6,68.1,30.06,SSE,158,0.0,238.7,58,4.70,,,0.01,VWS V14.01,2013-05-29 20:49:00,
2013-05-29 16:54:00,84.5,67.5,30.06,West,263,0.0,238.7,57,4.70,,,0.01,VWS V14.01,2013-05-29 20:54:00,
2013-05-29 16:59:00,83.5,67.0,30.06,West,278,0.0,238.7,58,4.70,,,0.01,VWS V14.01,2013-05-29 20:59:00,
2013-05-29 17:04:00,82.7,67.2,30.06,West,276,0.0,238.7,60,4.70,,,0.01,VWS V14.01,2013-05-29 21:04:00,
2013-05-29 17:09:00,82.5,67.7,30.06,West,276,0.0,238.7,61,4.70,,,0.01,VWS V14.01,2013-05-29 21:09:00,
2013-05-29 17:15:00,83.1,68.7,30.05,WNW,300,0.0,238.7,62,4.70,,,0.01,VWS V14.01,2013-05-29 21:15:00,
2013-05-29 17:20:00,84.5,67.0,30.05,WSW,243,5.0,238.7,56,4.70,,,0.01,VWS V14.01,2013-05-29 21:20:00,
2013-05-29 17:25:00,85.3,68.7,30.05,WSW,238,0.0,238.7,58,4.70,,,0.01,VWS V14.01,2013-05-29 21:25:00,
2013-05-29 17:30:00,86.2,68.5,30.05,SW,221,0.0,238.7,56,4.70,,,0.01,VWS V14.01,2013-05-29 21:30:00,
2013-05-29 17:35:00,87.2,68.9,30.05,SW,221,0.0,238.7,55,4.70,,,0.01,VWS V14.01,2013-05-29 21:35:00,
2013-05-29 17:40:00,87.5,67.6,30.05,SSW,198,0.0,238.7,52,4.70,,,0.01,VWS V14.01,2013-05-29 21:40:00,
2013-05-29 17:46:00,87.4,68.0,30.04,SSW,198,0.0,238.7,53,4.70,,,0.01,VWS V14.01,2013-05-29 21:46:00,
2013-05-29 17:51:00,86.8,68.1,30.04,West,270,0.0,238.7,54,4.70,,,0.01,VWS V14.01,2013-05-29 21:51:00,
2013-05-29 17:56:00,86.2,68.3,30.04,South,169,0.0,238.7,55,4.70,,,0.01,VWS V14.01,2013-05-29 21:56:00,
2013-05-29 18:01:00,85.3,67.4,30.04,South,181,0.0,238.7,55,4.70,,,0.01,VWS V14.01,2013-05-29 22:01:00,
2013-05-29 18:06:00,84.3,67.2,30.04,South,181,0.0,238.7,57,4.70,,,0.01,VWS V14.01,2013-05-29 22:06:00,
2013-05-29 18:12:00,83.6,67.8,30.04,West,260,0.0,238.7,59,4.70,,,0.01,VWS V14.01,2013-05-29 22:12:00,
2013-05-29 18:17:00,83.4,68.0,30.04,West,260,0.0,238.7,60,4.70,,,0.01,VWS V14.01,2013-05-29 22:17:00,
2013-05-29 18:22:00,83.0,67.3,30.04,WSW,239,3.5,238.7,59,4.70,,,0.01,VWS V14.01,2013-05-29 22:22:00,
2013-05-29 18:27:00,82.4,67.0,30.04,North,359,0.0,238.7,60,4.70,,,0.01,VWS V14.01,2013-05-29 22:27:00,
2013-05-29 18:32:00,82.4,68.1,30.03,South,188,0.0,238.7,62,4.70,,,0.01,VWS V14.01,2013-05-29 22:32:00,
2013-05-29 18:38:00,82.3,67.9,30.03,North,359,2.9,238.7,62,4.70,,,0.01,VWS V14.01,2013-05-29 22:38:00,
2013-05-29 18:43:00,82.0,67.9,30.03,SW,225,0.0,238.7,62,4.70,,,0.01,VWS V14.01,2013-05-29 22:43:00,
2013-05-29 18:48:00,81.5,67.8,30.03,SW,225,0.0,238.7,63,4.70,,,0.01,VWS V14.01,2013-05-29 22:48:00,
2013-05-29 18:53:00,81.3,67.7,30.03,West,266,0.0,238.7,64,4.70,,,0.01,VWS V14.01,2013-05-29 22:53:00,
2013-05-29 18:58:00,81.4,68.2,30.03,West,266,0.0,238.7,64,4.70,,,0.01,VWS V14.01,2013-05-29 22:58:00,
2013-05-29 19:04:00,80.8,68.0,30.03,West,266,0.0,238.7,65,4.70,,,0.01,VWS V14.01,2013-05-29 23:04:00,
2013-05-29 19:09:00,80.5,68.1,30.03,WSW,245,0.0,238.7,66,4.70,,,0.01,VWS V14.01,2013-05-29 23:09:00,
2013-05-29 19:14:00,80.5,68.2,30.04,WSW,245,0.0,238.7,66,4.70,,,0.01,VWS V14.01,2013-05-29 23:14:00,
2013-05-29 19:19:00,80.3,68.3,30.04,WSW,245,0.0,238.7,67,4.70,,,0.01,VWS V14.01,2013-05-29 23:19:00,
2013-05-29 19:24:00,80.1,68.4,30.03,South,187,0.0,238.7,68,4.70,,,0.01,VWS V14.01,2013-05-29 23:24:00,
2013-05-29 19:30:00,79.9,68.4,30.03,South,187,0.0,238.7,68,4.70,,,0.01,VWS V14.01,2013-05-29 23:30:00,
2013-05-29 19:35:00,79.7,68.5,30.03,South,187,0.0,238.7,69,4.70,,,0.01,VWS V14.01,2013-05-29 23:35:00,
2013-05-29 19:40:00,79.3,68.3,30.03,South,187,0.0,238.7,69,4.70,,,0.01,VWS V14.01,2013-05-29 23:40:00,
2013-05-29 19:45:00,79.3,68.5,30.03,South,187,0.0,238.7,70,4.70,,,0.01,VWS V14.01,2013-05-29 23:45:00,
2013-05-29 19:50:00,79.0,68.6,30.04,South,187,0.0,238.7,70,4.70,,,0.01,VWS V14.01,2013-05-29 23:50:00,
2013-05-29 19:55:00,78.7,68.4,30.04,South,187,0.0,238.7,71,4.70,,,0.01,VWS V14.01,2013-05-29 23:55:00,
2013-05-29 20:01:00,78.4,68.4,30.04,South,187,0.0,238.7,71,4.70,,,0.01,VWS V14.01,2013-05-30 00:01:00,
2013-05-29 20:06:00,78.2,68.5,30.04,South,187,0.0,238.7,72,4.70,,,0.01,VWS V14.01,2013-05-30 00:06:00,
2013-05-29 20:11:00,78.1,68.6,30.04,South,187,0.0,238.7,73,4.70,,,0.01,VWS V14.01,2013-05-30 00:11:00,
2013-05-29 20:16:00,77.7,68.4,30.04,South,187,0.0,238.7,73,4.70,,,0.01,VWS V14.01,2013-05-30 00:16:00,
2013-05-29 20:21:00,77.3,68.1,30.04,South,187,0.0,238.7,73,4.70,,,0.01,VWS V14.01,2013-05-30 00:21:00,
2013-05-29 20:27:00,77.2,68.6,30.04,South,187,0.0,238.7,75,4.70,,,0.01,VWS V14.01,2013-05-30 00:27:00,
2013-05-29 20:32:00,76.8,68.3,30.03,South,187,0.0,238.7,75,4.70,,,0.01,VWS V14.01,2013-05-30 00:32:00,
2013-05-29 20:37:00,76.7,68.2,30.03,South,187,0.0,238.7,75,4.70,,,0.01,VWS V14.01,2013-05-30 00:37:00,
2013-05-29 20:42:00,76.4,68.2,30.03,South,187,0.0,238.7,76,4.70,,,0.01,VWS V14.01,2013-05-30 00:42:00,
2013-05-29 20:47:00,76.1,68.3,30.03,South,187,0.0,238.7,77,4.70,,,0.01,VWS V14.01,2013-05-30 00:47:00,
2013-05-29 20:53:00,75.8,68.4,30.04,South,187,0.0,238.7,78,4.70,,,0.01,VWS V14.01,2013-05-30 00:53:00,
2013-05-29 20:58:00,75.5,68.4,30.04,South,187,0.0,238.7,79,4.70,,,0.01,VWS V14.01,2013-05-30 00:58:00,
2013-05-29 21:03:00,75.3,68.4,30.04,South,187,0.0,238.7,79,4.70,,,0.01,VWS V14.01,2013-05-30 01:03:00,
2013-05-29 21:08:00,75.1,68.2,30.04,South,187,0.0,238.7,79,4.70,,,0.01,VWS V14.01,2013-05-30 01:08:00,
2013-05-29 21:14:00,75.0,68.2,30.04,South,187,0.0,238.7,80,4.70,,,0.01,VWS V14.01,2013-05-30 01:14:00,
2013-05-29 21:19:00,74.9,68.2,30.05,South,187,0.0,238.7,80,4.70,,,0.01,VWS V14.01,2013-05-30 01:19:00,
2013-05-29 21:24:00,74.8,68.1,30.05,South,187,0.0,238.7,80,4.70,,,0.01,VWS V14.01,2013-05-30 01:24:00,
2013-05-29 21:30:00,74.7,68.1,30.06,South,187,0.0,238.7,80,4.70,,,0.01,VWS V14.01,2013-05-30 01:30:00,
2013-05-29 21:36:00,74.5,68.0,30.07,South,187,0.0,238.7,80,4.70,,,0.01,VWS V14.01,2013-05-30 01:36:00,
2013-05-29 21:41:00,74.4,68.0,30.07,South,187,0.0,238.7,80,4.70,,,0.01,VWS V14.01,2013-05-30 01:41:00,
2013-05-29 21:47:00,74.3,67.9,30.07,South,187,0.0,238.7,80,4.70,,,0.01,VWS V14.01,2013-05-30 01:47:00,
2013-05-29 21:52:00,74.2,67.9,30.07,South,187,0.0,238.7,81,4.70,,,0.01,VWS V14.01,2013-05-30 01:52:00,
2013-05-29 21:58:00,74.0,67.9,30.07,South,187,0.0,238.7,81,4.70,,,0.01,VWS V14.01,2013-05-30 01:58:00,
2013-05-29 22:03:00,74.0,68.1,30.07,South,187,0.0,238.7,82,4.70,,,0.01,VWS V14.01,2013-05-30 02:03:00,
2013-05-29 22:09:00,73.9,68.1,30.07,South,187,0.0,238.7,82,4.70,,,0.01,VWS V14.01,2013-05-30 02:09:00,
2013-05-29 22:14:00,73.7,68.0,30.08,South,187,0.0,238.7,82,4.70,,,0.01,VWS V14.01,2013-05-30 02:14:00,
2013-05-29 22:20:00,73.5,68.3,30.08,South,187,0.0,238.7,84,4.70,,,0.01,VWS V14.01,2013-05-30 02:20:00,
2013-05-29 22:25:00,73.2,68.4,30.08,South,187,0.0,238.7,85,4.70,,,0.01,VWS V14.01,2013-05-30 02:25:00,
2013-05-29 22:31:00,72.9,68.3,30.08,South,187,0.0,238.7,85,4.70,,,0.01,VWS V14.01,2013-05-30 02:31:00,
2013-05-29 22:37:00,72.6,68.2,30.08,South,187,0.0,238.7,86,4.70,,,0.01,VWS V14.01,2013-05-30 02:37:00,
2013-05-29 22:42:00,72.4,68.2,30.08,South,187,0.0,238.7,87,4.70,,,0.01,VWS V14.01,2013-05-30 02:42:00,
2013-05-29 22:48:00,72.1,68.1,30.08,South,187,0.0,238.7,87,4.70,,,0.01,VWS V14.01,2013-05-30 02:48:00,
2013-05-29 22:53:00,72.0,68.2,30.08,South,187,0.0,238.7,88,4.70,,,0.01,VWS V14.01,2013-05-30 02:53:00,
2013-05-29 22:58:00,71.8,68.1,30.08,South,187,0.0,238.7,88,4.70,,,0.01,VWS V14.01,2013-05-30 02:58:00,
2013-05-29 23:04:00,71.6,68.5,30.10,South,187,0.0,238.7,90,4.70,,,0.01,VWS V14.01,2013-05-30 03:04:00,
2013-05-29 23:09:00,71.3,68.5,30.10,NNE,20,0.0,238.7,91,4.70,,,0.01,VWS V14.01,2013-05-30 03:09:00,
2013-05-29 23:15:00,71.4,68.5,30.10,NNE,20,0.0,238.7,90,4.70,,,0.01,VWS V14.01,2013-05-30 03:15:00,
2013-05-29 23:20:00,71.5,68.4,30.10,NNE,20,0.0,238.7,90,4.70,,,0.01,VWS V14.01,2013-05-30 03:20:00,
2013-05-29 23:26:00,71.7,68.3,30.10,NNE,20,0.0,238.7,89,4.70,,,0.01,VWS V14.01,2013-05-30 03:26:00,
2013-05-29 23:31:00,71.7,68.1,30.10,NNE,20,0.0,238.7,88,4.70,,,0.01,VWS V14.01,2013-05-30 03:31:00,
2013-05-29 23:37:00,71.6,68.0,30.09,NNE,20,0.0,238.7,88,4.70,,,0.01,VWS V14.01,2013-05-30 03:37:00,
2013-05-29 23:42:00,71.6,68.1,30.10,NNE,20,0.0,238.7,89,4.70,,,0.01,VWS V14.01,2013-05-30 03:42:00,
2013-05-29 23:47:00,71.6,68.0,30.10,NNE,20,0.0,238.7,88,4.70,,,0.01,VWS V14.01,2013-05-30 03:47:00,
2013-05-29 23:53:00,71.6,68.0,30.10,NNE,20,0.0,238.7,88,4.70,,,0.01,VWS V14.01,2013-05-30 03:53:00,
2013-05-29 23:59:00,71.6,68.0,30.10,NNE,20,0.0,238.7,88,4.70,,,0.01,VWS V14.01,2013-05-30 03:59:00,